Kaw City, OK (74641)

10:39 AM CST on December 05, 2016 (GMT -0600)
Kildare | | Change Station

Elev 1168 ft 36.80 °N, 97.00 °W | Updated 1 second ago

Clear
Clear
47.8 °F
Feels Like 43 °F
N
12.3
Wind Variable Wind from SSE
Gusts 12.5 mph

Today
High -- | Low -- °F
--% Chance of Precip.
Yesterday
High -- | Low -- °F
Precip. -- in
Pressure 29.88 in
Visibility 10.0 miles
Clouds Clear
Windchill 43 °F
Dew Point 42 °F
Humidity 79%
Rainfall 0.00 in
Snow Depth Not available.
7:25 AM 5:11 PM
Waxing Crescent, 33% visible
METAR KPNC 051553Z AUTO 18005KT 10SM CLR 08/04 A2987 RMK AO2 SLP116 T00780039
Pressure 29.88 in
Visibility 10.0 miles
Clouds Clear
Windchill 43 °F
Dew Point 42 °F
Humidity 79%
Rainfall 0.00 in
Snow Depth Not available.
7:25 AM 5:11 PM
Waxing Crescent, 33% visible
METAR KPNC 051553Z AUTO 18005KT 10SM CLR 08/04 A2987 RMK AO2 SLP116 T00780039

10-Day Weather Forecast

Almanac

Astronomy

Dec. 05, 2016 Rise Set
Actual Time
Civil Twilight
Nautical Twilight
Astronomical Twilight
Moon
Length of Visible Light
Length of Day
Tomorrow will be .
, % of the Moon is Illuminated

Today's Extremes

State Highs State Lows

Community

WunderPhotos

Upload Photos

1,955,819 photos uploaded!

WunderBlog® & News

Nearby

Air Quality

  Air Quality AQ Index Pollutant
Not available.

Snow Depth

Station Depth Elevation

Earthquake Activity

City Distance Mag. Time & Date
Minimum magnitude displayed is 2.5.

Coastal Water Temperatures

Place Temperature

Stations

Nearby Weather Stations

Station Location Temp. Windchill Dew Point Humidity Wind Precip. Elev Updated Type
                   

Watches & Warnings

There are currently no watches in effect.